Time;durP1;ratioP1;P1;durP2;ratioP2;P2;SDS_P1;SDS_P2;PMS_P1;PMS_P2;Temp;Humidity;BMP_temperature;BMP_pressure;BME280_temperature;BME280_humidity;BME280_pressure;Samples;Min_cycle;Max_cycle;Signal;HPM_P1;HPM_P2
2022/07/15 00:01:36;;;;;;;4.80;4.17;;;;;;;;;;5077713;28;20470;-77
2022/07/15 00:04:03;;;;;;;4.37;3.43;;;;;;;;;;5077839;28;20451;-77
2022/07/15 00:06:30;;;;;;;4.73;4.23;;;;;;;;;;5077484;28;20828;-77
2022/07/15 00:08:58;;;;;;;4.30;3.63;;;;;;;;;;5077366;28;20463;-77
2022/07/15 00:11:25;;;;;;;4.20;3.90;;;;;;;;;;5077098;28;20487;-77
2022/07/15 00:13:52;;;;;;;6.23;3.60;;;;;;;;;;5077412;28;20502;-77
2022/07/15 00:16:19;;;;;;;5.07;3.20;;;;;;;;;;5076847;28;20456;-77
2022/07/15 00:18:46;;;;;;;3.80;3.50;;;;;;;;;;5077168;28;20818;-77
2022/07/15 00:21:14;;;;;;;6.07;3.90;;;;;;;;;;5077103;28;20451;-77
2022/07/15 00:23:41;;;;;;;5.37;4.00;;;;;;;;;;5076939;28;20451;-77
2022/07/15 00:26:09;;;;;;;8.37;3.70;;;;;;;;;;5077200;28;20948;-77
2022/07/15 00:28:36;;;;;;;4.27;3.87;;;;;;;;;;5077591;28;20462;-76
2022/07/15 00:31:03;;;;;;;7.97;5.40;;;;;;;;;;5077830;28;20478;-77
2022/07/15 00:33:31;;;;;;;5.47;4.50;;;;;;;;;;5077779;28;20461;-77
2022/07/15 00:35:58;;;;;;;5.60;4.53;;;;;;;;;;5078244;28;20444;-77
2022/07/15 00:38:25;;;;;;;11.30;4.20;;;;;;;;;;5079043;28;20452;-77
2022/07/15 00:40:52;;;;;;;5.67;5.13;;;;;;;;;;5078672;28;20452;-77
2022/07/15 00:43:21;;;;;;;6.73;5.67;;;;;;;;;;5078942;28;20482;-77
2022/07/15 00:45:48;;;;;;;6.07;5.03;;;;;;;;;;5078333;28;20456;-77
2022/07/15 00:48:15;;;;;;;5.10;4.60;;;;;;;;;;5078611;28;20471;-77
2022/07/15 00:50:42;;;;;;;5.83;5.30;;;;;;;;;;5078976;28;20451;-76
2022/07/15 00:53:17;;;;;;;6.30;5.50;;;;;;;;;;5078666;28;20475;-76
2022/07/15 00:55:45;;;;;;;7.50;5.83;;;;;;;;;;5079086;28;20432;-76
2022/07/15 00:58:15;;;;;;;10.30;7.50;;;;;;;;;;5078875;28;20456;-76
2022/07/15 01:00:44;;;;;;;11.50;7.27;;;;;;;;;;5079932;28;20862;-76
2022/07/15 01:03:11;;;;;;;7.07;6.37;;;;;;;;;;5079159;28;20515;-76
2022/07/15 01:05:39;;;;;;;12.13;7.60;;;;;;;;;;5080789;28;20971;-76
2022/07/15 01:08:06;;;;;;;7.93;7.10;;;;;;;;;;5080859;28;20451;-76
2022/07/15 01:10:35;;;;;;;11.07;7.37;;;;;;;;;;5079989;28;20927;-76
2022/07/15 01:13:04;;;;;;;12.87;8.67;;;;;;;;;;5080046;28;20492;-76
2022/07/15 01:15:32;;;;;;;10.00;8.37;;;;;;;;;;5080491;28;20478;-76
2022/07/15 01:18:01;;;;;;;13.00;9.33;;;;;;;;;;5080529;28;20483;-76
2022/07/15 01:20:29;;;;;;;11.20;8.23;;;;;;;;;;5080286;28;20455;-76
2022/07/15 01:22:58;;;;;;;11.13;8.60;;;;;;;;;;5079813;28;20467;-76
2022/07/15 01:25:26;;;;;;;9.20;8.30;;;;;;;;;;5080057;28;20470;-76
2022/07/15 01:27:53;;;;;;;13.10;9.07;;;;;;;;;;5079293;28;20456;-76
2022/07/15 01:30:20;;;;;;;12.33;8.80;;;;;;;;;;5079547;28;20966;-76
2022/07/15 01:32:47;;;;;;;12.63;9.60;;;;;;;;;;5079730;28;20491;-76
2022/07/15 01:35:14;;;;;;;9.50;7.93;;;;;;;;;;5079252;28;20477;-76
2022/07/15 01:37:41;;;;;;;12.27;8.97;;;;;;;;;;5079870;28;20448;-76
2022/07/15 01:40:10;;;;;;;11.93;10.10;;;;;;;;;;5081150;28;20437;-76
2022/07/15 01:42:37;;;;;;;9.83;8.97;;;;;;;;;;5080709;28;20470;-76
2022/07/15 01:45:05;;;;;;;9.57;8.67;;;;;;;;;;5081324;28;20456;-76
2022/07/15 01:47:33;;;;;;;9.00;8.10;;;;;;;;;;5081326;28;20459;-76
2022/07/15 01:49:59;;;;;;;12.70;10.23;;;;;;;;;;5080963;28;20456;-75
2022/07/15 01:52:26;;;;;;;8.97;8.17;;;;;;;;;;5080523;28;20537;-75
2022/07/15 01:54:53;;;;;;;11.23;8.97;;;;;;;;;;5081770;28;20810;-75
2022/07/15 01:57:21;;;;;;;9.10;8.20;;;;;;;;;;5080178;28;20459;-75
2022/07/15 01:59:49;;;;;;;12.03;9.87;;;;;;;;;;5079059;28;20433;-76
2022/07/15 02:02:16;;;;;;;9.47;8.40;;;;;;;;;;5078316;28;20562;-76
2022/07/15 02:04:43;;;;;;;12.70;9.23;;;;;;;;;;5078296;28;20456;-75
2022/07/15 02:07:10;;;;;;;12.90;11.60;;;;;;;;;;5078351;28;20448;-75
2022/07/15 02:09:37;;;;;;;15.13;12.30;;;;;;;;;;5077729;28;20455;-75
2022/07/15 02:12:06;;;;;;;14.33;11.07;;;;;;;;;;5078020;28;20495;-75
2022/07/15 02:14:34;;;;;;;12.67;11.40;;;;;;;;;;5077595;28;20463;-75
2022/07/15 02:17:02;;;;;;;11.80;10.60;;;;;;;;;;5077814;28;20948;-75
2022/07/15 02:19:29;;;;;;;12.50;10.67;;;;;;;;;;5077992;28;20932;-75
2022/07/15 02:21:56;;;;;;;15.40;11.77;;;;;;;;;;5078086;28;20474;-75
2022/07/15 02:24:24;;;;;;;11.70;10.50;;;;;;;;;;5077579;28;20467;-75
2022/07/15 02:26:51;;;;;;;17.40;13.20;;;;;;;;;;5077213;28;20452;-75
2022/07/15 02:29:18;;;;;;;13.27;11.73;;;;;;;;;;5077655;28;20460;-76
2022/07/15 02:31:46;;;;;;;16.00;11.90;;;;;;;;;;5077285;28;20494;-75
2022/07/15 02:34:13;;;;;;;13.20;11.80;;;;;;;;;;5077085;28;20609;-76
2022/07/15 02:36:40;;;;;;;16.67;12.20;;;;;;;;;;5077437;28;20448;-76
2022/07/15 02:39:07;;;;;;;13.67;12.47;;;;;;;;;;5076708;28;20795;-76
2022/07/15 02:41:35;;;;;;;18.63;12.73;;;;;;;;;;5077331;28;20468;-76
2022/07/15 02:44:03;;;;;;;12.83;11.57;;;;;;;;;;5077348;28;20463;-76
2022/07/15 02:46:31;;;;;;;13.20;11.90;;;;;;;;;;5077556;28;20525;-76
2022/07/15 02:48:59;;;;;;;13.70;12.30;;;;;;;;;;5078393;28;20969;-76
2022/07/15 02:51:26;;;;;;;31.33;13.70;;;;;;;;;;5077835;28;20471;-76
2022/07/15 02:53:54;;;;;;;15.33;13.63;;;;;;;;;;5078552;28;20442;-76
2022/07/15 02:56:21;;;;;;;13.63;11.87;;;;;;;;;;5077668;28;20452;-76
2022/07/15 02:58:48;;;;;;;14.93;12.73;;;;;;;;;;5078301;28;20452;-75
2022/07/15 03:01:15;;;;;;;13.27;11.90;;;;;;;;;;5077805;28;20443;-76
2022/07/15 03:03:42;;;;;;;13.27;11.03;;;;;;;;;;5077600;28;20447;-76
2022/07/15 03:06:11;;;;;;;17.50;12.70;;;;;;;;;;5077380;28;20447;-76
2022/07/15 03:08:38;;;;;;;23.47;12.40;;;;;;;;;;5077363;28;20451;-76
2022/07/15 03:11:05;;;;;;;12.20;10.97;;;;;;;;;;5076875;28;20459;-76
2022/07/15 03:13:32;;;;;;;14.40;13.00;;;;;;;;;;5076467;28;20906;-75
2022/07/15 03:15:59;;;;;;;15.30;13.47;;;;;;;;;;5077166;28;20456;-76
2022/07/15 03:18:26;;;;;;;13.07;11.70;;;;;;;;;;5076787;28;20479;-75
2022/07/15 03:20:53;;;;;;;14.90;12.30;;;;;;;;;;5076555;28;20459;-75
2022/07/15 03:23:22;;;;;;;13.13;11.80;;;;;;;;;;5076712;28;20464;-75
2022/07/15 03:25:49;;;;;;;15.17;11.40;;;;;;;;;;5076018;28;20833;-75
2022/07/15 03:28:16;;;;;;;12.60;11.10;;;;;;;;;;5076558;28;20459;-76
2022/07/15 03:30:43;;;;;;;16.30;12.90;;;;;;;;;;5076827;28;21000;-75
2022/07/15 03:33:10;;;;;;;16.53;10.80;;;;;;;;;;5076494;28;20503;-76
2022/07/15 03:35:37;;;;;;;20.20;12.47;;;;;;;;;;5076623;28;20456;-75
2022/07/15 03:38:04;;;;;;;13.67;12.03;;;;;;;;;;5076369;28;20518;-76
2022/07/15 03:40:33;;;;;;;14.00;12.70;;;;;;;;;;5076478;28;20543;-75
2022/07/15 03:43:00;;;;;;;14.90;11.73;;;;;;;;;;5076432;28;20459;-75
2022/07/15 03:45:28;;;;;;;14.07;11.33;;;;;;;;;;5077230;28;20980;-75
2022/07/15 03:47:55;;;;;;;13.17;11.67;;;;;;;;;;5077022;28;20459;-75
2022/07/15 03:50:22;;;;;;;14.00;12.17;;;;;;;;;;5076819;28;20436;-75
2022/07/15 03:52:49;;;;;;;21.40;16.13;;;;;;;;;;5077115;28;20498;-75
2022/07/15 03:55:17;;;;;;;13.67;12.27;;;;;;;;;;5077202;28;20520;-75
2022/07/15 03:57:45;;;;;;;12.60;11.27;;;;;;;;;;5077849;28;20431;-75
2022/07/15 04:00:13;;;;;;;14.63;12.60;;;;;;;;;;5078171;28;20846;-75
2022/07/15 04:02:40;;;;;;;12.40;10.93;;;;;;;;;;5077237;28;20467;-75
2022/07/15 04:05:07;;;;;;;14.37;11.03;;;;;;;;;;5077095;28;20447;-75
2022/07/15 04:07:35;;;;;;;14.23;9.63;;;;;;;;;;5076889;28;20452;-75
2022/07/15 04:10:02;;;;;;;11.87;10.87;;;;;;;;;;5076708;28;20452;-75
2022/07/15 04:12:29;;;;;;;12.07;10.87;;;;;;;;;;5077004;28;20487;-75
2022/07/15 04:14:57;;;;;;;11.27;10.27;;;;;;;;;;5076992;28;20424;-75
2022/07/15 04:17:24;;;;;;;13.13;11.50;;;;;;;;;;5076796;28;20458;-75
2022/07/15 04:19:51;;;;;;;12.57;11.37;;;;;;;;;;5077187;28;20543;-75
2022/07/15 04:22:18;;;;;;;16.37;10.83;;;;;;;;;;5076292;28;20499;-75
2022/07/15 04:24:45;;;;;;;12.47;11.17;;;;;;;;;;5075950;28;20456;-75
2022/07/15 04:27:13;;;;;;;13.07;10.80;;;;;;;;;;5075494;28;20451;-75
2022/07/15 04:29:40;;;;;;;10.70;9.70;;;;;;;;;;5075944;28;20447;-75
2022/07/15 04:32:08;;;;;;;12.43;10.50;;;;;;;;;;5075689;28;21023;-75
2022/07/15 04:34:35;;;;;;;13.10;10.80;;;;;;;;;;5079399;28;20474;-75
2022/07/15 04:37:03;;;;;;;11.43;10.37;;;;;;;;;;5079863;28;20456;-75
2022/07/15 04:39:30;;;;;;;16.03;9.70;;;;;;;;;;5079592;28;20474;-75
2022/07/15 04:41:57;;;;;;;10.83;9.13;;;;;;;;;;5080014;28;20463;-76
2022/07/15 04:44:24;;;;;;;10.23;9.10;;;;;;;;;;5080682;28;20459;-75
2022/07/15 04:46:51;;;;;;;10.33;8.23;;;;;;;;;;5079206;28;20451;-76
2022/07/15 04:52:04;;;;;;;9.30;8.50;;;;;;;;;;5078135;28;20498;-75
2022/07/15 04:54:31;;;;;;;11.03;8.07;;;;;;;;;;5077766;28;20443;-75
2022/07/15 04:56:59;;;;;;;13.37;9.27;;;;;;;;;;5078642;28;20451;-75
2022/07/15 04:59:26;;;;;;;10.40;8.63;;;;;;;;;;5078711;28;20925;-75
2022/07/15 05:01:54;;;;;;;13.17;8.77;;;;;;;;;;5079577;28;20479;-75
2022/07/15 05:04:22;;;;;;;8.83;7.87;;;;;;;;;;5079033;28;20952;-75
2022/07/15 05:06:49;;;;;;;11.20;8.37;;;;;;;;;;5078485;28;20456;-75
2022/07/15 05:09:16;;;;;;;12.83;9.30;;;;;;;;;;5078292;28;20459;-75
2022/07/15 05:11:43;;;;;;;8.50;7.13;;;;;;;;;;5078257;28;20475;-75
2022/07/15 05:14:11;;;;;;;10.40;8.50;;;;;;;;;;5076586;28;20519;-76
2022/07/15 05:16:38;;;;;;;8.80;7.87;;;;;;;;;;5076511;28;20494;-76
2022/07/15 05:19:05;;;;;;;12.23;7.70;;;;;;;;;;5076419;28;20452;-76
2022/07/15 05:21:34;;;;;;;8.30;7.40;;;;;;;;;;5076523;28;20472;-76
2022/07/15 05:24:01;;;;;;;8.53;7.10;;;;;;;;;;5076549;28;20550;-76
2022/07/15 05:26:28;;;;;;;6.00;5.40;;;;;;;;;;5076829;28;20431;-76
2022/07/15 05:28:55;;;;;;;7.10;5.43;;;;;;;;;;5077105;28;20941;-76
2022/07/15 05:31:23;;;;;;;7.77;6.27;;;;;;;;;;5077141;28;20877;-76
2022/07/15 05:33:52;;;;;;;7.17;6.50;;;;;;;;;;5076982;28;21086;-75
2022/07/15 05:36:19;;;;;;;6.43;5.83;;;;;;;;;;5076950;28;20462;-75
2022/07/15 05:38:48;;;;;;;10.53;7.07;;;;;;;;;;5076720;28;20944;-75
2022/07/15 05:41:15;;;;;;;7.73;6.47;;;;;;;;;;5076959;28;20452;-75
2022/07/15 05:43:42;;;;;;;11.00;7.07;;;;;;;;;;5075920;28;20452;-75
2022/07/15 05:46:09;;;;;;;9.13;6.30;;;;;;;;;;5075611;28;20949;-76
2022/07/15 05:48:37;;;;;;;7.43;6.00;;;;;;;;;;5076226;28;20534;-76
2022/07/15 05:51:04;;;;;;;6.20;5.50;;;;;;;;;;5076747;28;20873;-75
2022/07/15 05:53:31;;;;;;;6.77;5.40;;;;;;;;;;5077006;28;20983;-75
2022/07/15 05:56:00;;;;;;;5.63;5.13;;;;;;;;;;5076758;28;20432;-75
2022/07/15 05:58:27;;;;;;;7.40;5.30;;;;;;;;;;5073860;28;20486;-75
2022/07/15 06:00:55;;;;;;;4.80;4.37;;;;;;;;;;5074949;28;20443;-75
2022/07/15 06:03:22;;;;;;;4.60;4.20;;;;;;;;;;5075408;28;20566;-76
2022/07/15 06:05:49;;;;;;;3.77;3.37;;;;;;;;;;5074371;28;20972;-76
2022/07/15 06:08:16;;;;;;;6.10;4.10;;;;;;;;;;5074558;28;20807;-76
2022/07/15 06:10:43;;;;;;;6.50;3.97;;;;;;;;;;5073424;28;20456;-76
2022/07/15 06:13:12;;;;;;;5.63;4.07;;;;;;;;;;5073243;28;20494;-76
2022/07/15 06:15:39;;;;;;;4.30;3.90;;;;;;;;;;5074483;28;20560;-76
2022/07/15 06:18:06;;;;;;;3.87;3.57;;;;;;;;;;5074726;28;20528;-76
2022/07/15 06:20:33;;;;;;;4.67;3.60;;;;;;;;;;5075246;28;20941;-76
2022/07/15 06:23:01;;;;;;;5.03;3.77;;;;;;;;;;5075072;28;20472;-76
2022/07/15 06:25:28;;;;;;;4.27;3.63;;;;;;;;;;5076117;28;20459;-76
2022/07/15 06:27:55;;;;;;;3.70;3.20;;;;;;;;;;5076256;28;20458;-76
2022/07/15 06:30:23;;;;;;;3.73;3.33;;;;;;;;;;5074175;28;20447;-74
2022/07/15 06:32:50;;;;;;;4.47;3.73;;;;;;;;;;5073360;28;20495;-73
2022/07/15 06:35:17;;;;;;;4.33;3.93;;;;;;;;;;5073753;28;20455;-74
2022/07/15 06:37:44;;;;;;;8.00;3.90;;;;;;;;;;5073459;28;20458;-74
2022/07/15 06:40:12;;;;;;;4.10;3.33;;;;;;;;;;5073050;28;20459;-74
2022/07/15 06:42:39;;;;;;;6.73;4.07;;;;;;;;;;5073370;28;20468;-73
2022/07/15 06:45:07;;;;;;;4.13;3.73;;;;;;;;;;5073111;28;20459;-73
2022/07/15 06:47:35;;;;;;;7.10;3.50;;;;;;;;;;5073061;28;20889;-73
2022/07/15 06:50:02;;;;;;;4.43;4.03;;;;;;;;;;5073482;28;20440;-73
2022/07/15 06:52:29;;;;;;;4.70;4.23;;;;;;;;;;5074347;28;20487;-76
2022/07/15 06:54:56;;;;;;;4.17;3.77;;;;;;;;;;5074605;28;20428;-76
2022/07/15 06:57:23;;;;;;;4.30;3.90;;;;;;;;;;5074933;28;20456;-76
2022/07/15 06:59:51;;;;;;;7.20;4.97;;;;;;;;;;5074428;28;20459;-76
2022/07/15 07:02:18;;;;;;;5.20;4.30;;;;;;;;;;5073866;28;20482;-76
2022/07/15 07:04:46;;;;;;;6.50;4.50;;;;;;;;;;5073910;28;20459;-75
2022/07/15 07:07:13;;;;;;;4.47;4.07;;;;;;;;;;5073599;28;20456;-76
2022/07/15 07:09:40;;;;;;;6.60;4.00;;;;;;;;;;5074631;28;20550;-76
2022/07/15 07:12:07;;;;;;;4.37;3.73;;;;;;;;;;5075133;28;20515;-76
2022/07/15 07:14:35;;;;;;;6.30;4.30;;;;;;;;;;5075192;28;20490;-76
2022/07/15 07:17:02;;;;;;;5.63;3.90;;;;;;;;;;5074234;28;20463;-74
2022/07/15 07:19:29;;;;;;;3.30;3.00;;;;;;;;;;5074366;28;20948;-74
2022/07/15 07:21:57;;;;;;;12.97;3.60;;;;;;;;;;5073364;28;20475;-73
2022/07/15 07:24:24;;;;;;;3.40;3.10;;;;;;;;;;5073727;28;20466;-74
2022/07/15 07:26:51;;;;;;;5.43;4.00;;;;;;;;;;5073827;28;20447;-74
2022/07/15 07:29:22;;;;;;;4.00;3.70;;;;;;;;;;5074156;28;20458;-74
2022/07/15 07:31:49;;;;;;;5.70;3.90;;;;;;;;;;5073867;28;20475;-73
2022/07/15 07:34:17;;;;;;;4.70;3.47;;;;;;;;;;5074352;28;20479;-74
2022/07/15 07:36:44;;;;;;;5.37;4.10;;;;;;;;;;5073768;28;20451;-74
2022/07/15 07:39:13;;;;;;;7.67;3.90;;;;;;;;;;5073587;28;20457;-73
2022/07/15 07:41:40;;;;;;;6.07;3.70;;;;;;;;;;5073213;28;20479;-74
2022/07/15 07:44:08;;;;;;;5.03;3.90;;;;;;;;;;5073795;28;20454;-74
2022/07/15 07:46:35;;;;;;;7.00;3.83;;;;;;;;;;5073526;28;20458;-76
2022/07/15 07:49:02;;;;;;;4.60;4.30;;;;;;;;;;5073443;28;20455;-76
2022/07/15 07:51:29;;;;;;;3.97;3.53;;;;;;;;;;5073307;28;20468;-76
2022/07/15 07:53:58;;;;;;;4.90;4.20;;;;;;;;;;5073251;28;20474;-74
2022/07/15 07:56:26;;;;;;;5.77;4.50;;;;;;;;;;5073831;28;20927;-74
2022/07/15 07:58:53;;;;;;;5.37;4.10;;;;;;;;;;5073643;28;20447;-73
2022/07/15 08:01:20;;;;;;;5.50;4.40;;;;;;;;;;5074581;28;20479;-75
2022/07/15 08:03:47;;;;;;;5.60;5.10;;;;;;;;;;5073686;28;20450;-75
2022/07/15 08:06:14;;;;;;;6.90;4.27;;;;;;;;;;5073525;28;20444;-75
2022/07/15 08:08:41;;;;;;;4.23;3.80;;;;;;;;;;5076531;28;20452;-75
2022/07/15 08:11:09;;;;;;;4.40;3.50;;;;;;;;;;5079801;28;20458;-75
2022/07/15 08:13:38;;;;;;;6.00;4.47;;;;;;;;;;5077998;28;20486;-75
2022/07/15 08:16:06;;;;;;;5.53;3.80;;;;;;;;;;5078533;28;20455;-76
2022/07/15 08:18:33;;;;;;;8.37;4.70;;;;;;;;;;5077903;28;20443;-76
2022/07/15 08:21:03;;;;;;;4.20;3.80;;;;;;;;;;5078573;28;20436;-76
2022/07/15 08:23:32;;;;;;;5.43;4.73;;;;;;;;;;5078041;28;20460;-77
2022/07/15 08:25:59;;;;;;;7.13;4.27;;;;;;;;;;5077553;28;20463;-76
2022/07/15 08:28:26;;;;;;;5.37;3.70;;;;;;;;;;5077741;28;20455;-76
2022/07/15 08:30:55;;;;;;;4.83;4.00;;;;;;;;;;5077284;28;20463;-76
2022/07/15 08:33:22;;;;;;;6.30;3.30;;;;;;;;;;5077744;28;20471;-76
2022/07/15 08:35:49;;;;;;;4.60;3.90;;;;;;;;;;5078193;28;20483;-76
2022/07/15 08:38:16;;;;;;;6.13;3.53;;;;;;;;;;5077487;28;20501;-76
2022/07/15 08:40:43;;;;;;;4.23;3.83;;;;;;;;;;5076842;28;20479;-76
2022/07/15 08:43:11;;;;;;;5.77;3.80;;;;;;;;;;5077541;28;20507;-76
2022/07/15 08:45:39;;;;;;;4.00;3.43;;;;;;;;;;5077622;28;20456;-76
2022/07/15 08:48:09;;;;;;;3.63;3.33;;;;;;;;;;5076980;28;20455;-76
2022/07/15 08:50:37;;;;;;;5.77;3.50;;;;;;;;;;5076830;28;20455;-76
2022/07/15 08:53:05;;;;;;;4.37;3.90;;;;;;;;;;5077002;28;20475;-76
2022/07/15 08:55:32;;;;;;;7.33;4.20;;;;;;;;;;5076700;28;20476;-76
2022/07/15 08:58:00;;;;;;;3.63;3.07;;;;;;;;;;5076597;28;20937;-76
2022/07/15 09:00:29;;;;;;;4.80;3.40;;;;;;;;;;5076660;28;20924;-76
2022/07/15 09:02:57;;;;;;;8.13;2.57;;;;;;;;;;5076736;28;20969;-76
2022/07/15 09:05:27;;;;;;;3.27;2.97;;;;;;;;;;5076054;28;20454;-76
2022/07/15 09:07:55;;;;;;;3.13;2.77;;;;;;;;;;5076418;28;20539;-76
2022/07/15 09:10:23;;;;;;;4.47;3.20;;;;;;;;;;5076423;28;20924;-76
2022/07/15 09:12:51;;;;;;;5.23;2.87;;;;;;;;;;5076280;28;20482;-76
2022/07/15 09:15:34;;;;;;;6.43;3.20;;;;;;;;;;5076084;28;20490;-76
2022/07/15 09:18:07;;;;;;;3.80;3.33;;;;;;;;;;5076539;28;20522;-76
2022/07/15 09:20:36;;;;;;;3.83;2.70;;;;;;;;;;5076673;28;20436;-76
2022/07/15 09:23:03;;;;;;;3.33;2.80;;;;;;;;;;5076527;28;20533;-76
2022/07/15 09:25:33;;;;;;;5.00;2.60;;;;;;;;;;5076178;28;20464;-76
2022/07/15 09:28:02;;;;;;;4.30;3.03;;;;;;;;;;5076898;28;20517;-76
2022/07/15 09:36:10;;;;;;;4.10;2.90;;;;;;;;;;5076957;28;20540;-76
2022/07/15 09:38:42;;;;;;;4.37;2.97;;;;;;;;;;5076760;28;20445;-76
2022/07/15 09:41:10;;;;;;;3.53;2.40;;;;;;;;;;5076825;28;20447;-76
2022/07/15 09:43:44;;;;;;;5.50;2.67;;;;;;;;;;5076065;28;20452;-77
2022/07/15 09:46:13;;;;;;;3.93;2.77;;;;;;;;;;5076454;28;20451;-76
2022/07/15 09:48:41;;;;;;;4.00;3.60;;;;;;;;;;5076348;28;20439;-76
2022/07/15 09:51:10;;;;;;;4.90;2.87;;;;;;;;;;5075980;28;20447;-75
2022/07/15 09:53:38;;;;;;;4.00;2.60;;;;;;;;;;5076293;28;20951;-76
2022/07/15 09:56:08;;;;;;;4.07;2.40;;;;;;;;;;5075925;28;20464;-76
2022/07/15 09:58:37;;;;;;;4.60;2.60;;;;;;;;;;5075836;28;20481;-76
2022/07/15 10:01:04;;;;;;;5.30;2.73;;;;;;;;;;5076249;28;20454;-76
2022/07/15 10:03:33;;;;;;;6.07;2.70;;;;;;;;;;5076220;28;20448;-76
2022/07/15 10:06:02;;;;;;;5.63;3.80;;;;;;;;;;5076591;28;20451;-76
2022/07/15 10:08:30;;;;;;;5.37;3.40;;;;;;;;;;5075626;28;20941;-76
2022/07/15 10:10:58;;;;;;;5.40;3.00;;;;;;;;;;5076289;28;20956;-76
2022/07/15 10:13:46;;;;;;;3.33;2.90;;;;;;;;;;5076403;28;20559;-76
2022/07/15 10:16:20;;;;;;;7.07;2.93;;;;;;;;;;5072872;28;20459;-76
2022/07/15 10:18:54;;;;;;;3.60;3.07;;;;;;;;;;5076174;28;20435;-76
2022/07/15 10:21:26;;;;;;;5.83;3.23;;;;;;;;;;5076212;28;20475;-76
2022/07/15 10:24:16;;;;;;;5.20;2.90;;;;;;;;;;5076202;28;20436;-76
2022/07/15 10:26:49;;;;;;;5.27;3.10;;;;;;;;;;5076471;28;20450;-76
2022/07/15 10:29:16;;;;;;;3.50;2.87;;;;;;;;;;5076168;28;20428;-76
2022/07/15 10:31:45;;;;;;;6.40;3.00;;;;;;;;;;5075811;28;20463;-76
2022/07/15 10:34:20;;;;;;;6.57;3.90;;;;;;;;;;5076252;28;20851;-76
2022/07/15 10:36:57;;;;;;;3.70;3.33;;;;;;;;;;5075628;28;20490;-76
2022/07/15 10:39:27;;;;;;;3.43;3.13;;;;;;;;;;5076181;28;20455;-76
2022/07/15 10:41:56;;;;;;;3.23;2.93;;;;;;;;;;5075575;28;20596;-76
2022/07/15 10:44:23;;;;;;;5.70;2.90;;;;;;;;;;5076169;28;20835;-76
2022/07/15 10:47:05;;;;;;;10.43;4.03;;;;;;;;;;5075697;28;20456;-77
2022/07/15 10:49:33;;;;;;;5.60;2.80;;;;;;;;;;5076124;28;20452;-76
2022/07/15 10:52:14;;;;;;;3.93;3.50;;;;;;;;;;5074647;28;20474;-76
2022/07/15 10:54:44;;;;;;;4.47;3.70;;;;;;;;;;5073958;28;20601;-75
2022/07/15 10:57:13;;;;;;;3.33;3.00;;;;;;;;;;5074633;28;20451;-75
2022/07/15 10:59:41;;;;;;;5.50;3.37;;;;;;;;;;5074095;28;20805;-76
2022/07/15 11:02:13;;;;;;;3.43;2.90;;;;;;;;;;5074036;28;20499;-75
2022/07/15 11:04:42;;;;;;;5.20;2.97;;;;;;;;;;5074182;28;20447;-75
2022/07/15 11:07:35;;;;;;;8.30;3.40;;;;;;;;;;5073950;28;20448;-75
2022/07/15 11:10:17;;;;;;;5.33;3.30;;;;;;;;;;5073657;28;20442;-75
2022/07/15 11:13:01;;;;;;;3.50;3.20;;;;;;;;;;5074155;28;20824;-75
2022/07/15 11:15:28;;;;;;;3.50;3.07;;;;;;;;;;5073910;28;20470;-75
2022/07/15 11:17:56;;;;;;;4.63;2.90;;;;;;;;;;5073524;28;20451;-75
2022/07/15 11:20:25;;;;;;;7.30;3.87;;;;;;;;;;5073812;28;20494;-75
2022/07/15 11:22:53;;;;;;;8.73;3.43;;;;;;;;;;5073128;28;20475;-75
2022/07/15 11:25:22;;;;;;;5.07;3.23;;;;;;;;;;5073277;28;20467;-75
2022/07/15 11:28:13;;;;;;;4.30;2.67;;;;;;;;;;5073157;28;20456;-75
2022/07/15 11:30:41;;;;;;;5.30;3.40;;;;;;;;;;5062916;28;20526;-75
2022/07/15 11:33:10;;;;;;;3.63;2.93;;;;;;;;;;5073400;28;20471;-75
2022/07/15 11:35:45;;;;;;;6.17;2.83;;;;;;;;;;5073385;28;20491;-75
2022/07/15 11:38:12;;;;;;;6.97;3.10;;;;;;;;;;5073431;28;20482;-75
2022/07/15 11:46:12;;;;;;;6.17;3.37;;;;;;;;;;5077411;28;20465;-75
2022/07/15 11:48:40;;;;;;;4.00;2.83;;;;;;;;;;5077560;28;20456;-75
2022/07/15 11:51:09;;;;;;;5.87;3.60;;;;;;;;;;5077059;28;20458;-75
2022/07/15 11:53:38;;;;;;;6.90;2.73;;;;;;;;;;5077404;28;20440;-75
2022/07/15 11:56:07;;;;;;;3.40;2.90;;;;;;;;;;5077236;28;20972;-75
2022/07/15 11:58:36;;;;;;;7.63;3.10;;;;;;;;;;5076895;28;20458;-76
2022/07/15 12:01:04;;;;;;;3.83;3.13;;;;;;;;;;5077536;28;20455;-75
2022/07/15 12:03:32;;;;;;;4.90;3.07;;;;;;;;;;5077746;28;20452;-75
2022/07/15 12:06:06;;;;;;;4.43;2.97;;;;;;;;;;5077290;28;20948;-75
2022/07/15 12:08:41;;;;;;;3.50;3.20;;;;;;;;;;5077272;28;20439;-77
2022/07/15 12:11:14;;;;;;;4.70;3.10;;;;;;;;;;5077333;28;20455;-76
2022/07/15 12:13:42;;;;;;;6.10;3.77;;;;;;;;;;5076901;28;20487;-76
2022/07/15 12:16:10;;;;;;;4.27;3.07;;;;;;;;;;5077527;28;20514;-76
2022/07/15 12:18:37;;;;;;;3.27;2.87;;;;;;;;;;5077252;28;20451;-76
2022/07/15 12:21:04;;;;;;;5.27;3.10;;;;;;;;;;5076720;28;20644;-76
2022/07/15 12:23:31;;;;;;;3.53;2.60;;;;;;;;;;5077429;28;20436;-76
2022/07/15 12:26:16;;;;;;;8.73;3.83;;;;;;;;;;5076642;28;20464;-76
2022/07/15 12:28:53;;;;;;;4.67;3.00;;;;;;;;;;5076744;28;20427;-76
2022/07/15 12:31:25;;;;;;;3.37;2.77;;;;;;;;;;5076921;28;20467;-77
2022/07/15 12:33:53;;;;;;;7.00;2.97;;;;;;;;;;5076990;28;20437;-77
2022/07/15 12:36:21;;;;;;;3.63;2.77;;;;;;;;;;5076718;28;20486;-77
2022/07/15 12:39:03;;;;;;;3.77;2.90;;;;;;;;;;5076747;28;20455;-77
2022/07/15 12:41:30;;;;;;;6.97;3.37;;;;;;;;;;5076661;28;20478;-77
2022/07/15 12:43:59;;;;;;;7.50;3.00;;;;;;;;;;5076472;28;20460;-77
2022/07/15 12:46:41;;;;;;;3.57;3.23;;;;;;;;;;5076477;28;20452;-77
2022/07/15 12:49:08;;;;;;;4.23;3.27;;;;;;;;;;5076008;28;20971;-77
2022/07/15 12:51:35;;;;;;;4.50;3.07;;;;;;;;;;5076379;28;20505;-78
2022/07/15 12:54:06;;;;;;;5.17;3.10;;;;;;;;;;5075516;28;20442;-77
2022/07/15 12:56:48;;;;;;;3.90;2.60;;;;;;;;;;5076120;28;20483;-77
2022/07/15 12:59:16;;;;;;;4.37;2.90;;;;;;;;;;5076123;28;20448;-77
2022/07/15 13:01:45;;;;;;;5.40;3.37;;;;;;;;;;5075930;28;20988;-75
2022/07/15 13:04:13;;;;;;;5.73;2.67;;;;;;;;;;5075711;28;20497;-75
2022/07/15 13:06:40;;;;;;;3.57;2.70;;;;;;;;;;5076033;28;20531;-75
2022/07/15 13:09:07;;;;;;;3.43;2.77;;;;;;;;;;5075981;28;20444;-75
2022/07/15 13:11:34;;;;;;;4.70;2.87;;;;;;;;;;5075742;28;20476;-76
2022/07/15 13:14:01;;;;;;;4.17;2.87;;;;;;;;;;5075621;28;20448;-76
2022/07/15 13:16:30;;;;;;;5.63;2.90;;;;;;;;;;5075477;28;20483;-76
2022/07/15 13:18:57;;;;;;;7.30;2.77;;;;;;;;;;5075736;28;20451;-77
2022/07/15 13:21:24;;;;;;;8.40;3.07;;;;;;;;;;5075759;28;20986;-75
2022/07/15 13:23:51;;;;;;;6.90;2.67;;;;;;;;;;5075846;28;20459;-77
2022/07/15 13:26:18;;;;;;;4.37;3.30;;;;;;;;;;5075360;28;20462;-76
2022/07/15 13:28:45;;;;;;;6.40;4.77;;;;;;;;;;5075456;28;20468;-75
2022/07/15 13:31:12;;;;;;;4.23;3.00;;;;;;;;;;5075635;28;20455;-75
2022/07/15 13:33:41;;;;;;;3.10;2.60;;;;;;;;;;5075351;28;20463;-76
2022/07/15 13:36:08;;;;;;;6.20;2.67;;;;;;;;;;5075256;28;20495;-75
2022/07/15 13:38:35;;;;;;;6.57;3.40;;;;;;;;;;5075113;28;20526;-76
2022/07/15 13:41:02;;;;;;;6.07;3.10;;;;;;;;;;5074585;28;20452;-75
2022/07/15 13:43:29;;;;;;;10.33;2.97;;;;;;;;;;5074183;28;20444;-75
2022/07/15 13:45:56;;;;;;;3.93;2.37;;;;;;;;;;5073925;28;20444;-75
2022/07/15 13:48:23;;;;;;;4.10;2.47;;;;;;;;;;5073962;28;20451;-75
2022/07/15 13:53:37;;;;;;;3.23;2.20;;;;;;;;;;5073594;28;20419;-76
2022/07/15 13:56:04;;;;;;;3.40;2.80;;;;;;;;;;5073834;28;20839;-75
2022/07/15 13:58:32;;;;;;;4.40;2.87;;;;;;;;;;5073547;28;20462;-75
2022/07/15 14:00:59;;;;;;;4.70;3.50;;;;;;;;;;5073790;28;20448;-75
2022/07/15 14:03:26;;;;;;;4.60;3.13;;;;;;;;;;5073851;28;20436;-75
2022/07/15 14:05:55;;;;;;;4.60;2.47;;;;;;;;;;5072353;28;20455;-76
2022/07/15 14:08:22;;;;;;;3.57;2.80;;;;;;;;;;5073797;28;20440;-75
2022/07/15 14:10:49;;;;;;;9.03;3.30;;;;;;;;;;5073594;28;20960;-75
2022/07/15 14:13:16;;;;;;;6.97;2.50;;;;;;;;;;5073457;28;20498;-76
2022/07/15 14:15:43;;;;;;;7.50;3.67;;;;;;;;;;5073114;28;20491;-75
2022/07/15 14:18:11;;;;;;;5.83;3.10;;;;;;;;;;5073388;28;20448;-75
2022/07/15 14:20:38;;;;;;;9.20;3.63;;;;;;;;;;5073575;28;20440;-75
2022/07/15 14:23:07;;;;;;;4.93;2.63;;;;;;;;;;5073187;28;20478;-75
2022/07/15 14:25:34;;;;;;;4.90;4.50;;;;;;;;;;5073424;28;20842;-75
2022/07/15 14:28:09;;;;;;;4.30;2.60;;;;;;;;;;5130708;27;20950;-75
2022/07/15 14:30:36;;;;;;;4.87;3.43;;;;;;;;;;5130562;28;20428;-74
2022/07/15 14:33:03;;;;;;;7.00;3.40;;;;;;;;;;5130586;28;20835;-75
2022/07/15 14:35:31;;;;;;;5.70;2.47;;;;;;;;;;5130415;27;20445;-74
2022/07/15 14:37:58;;;;;;;5.90;2.73;;;;;;;;;;5130304;27;20456;-74
2022/07/15 14:40:25;;;;;;;8.63;5.43;;;;;;;;;;5130683;27;20945;-74
2022/07/15 14:42:52;;;;;;;4.33;2.43;;;;;;;;;;5130707;27;20473;-74
2022/07/15 14:45:21;;;;;;;5.40;3.20;;;;;;;;;;5130771;27;20445;-74
2022/07/15 14:47:48;;;;;;;5.37;2.50;;;;;;;;;;5131423;27;20465;-74
2022/07/15 14:50:15;;;;;;;4.60;3.20;;;;;;;;;;5131725;27;20522;-74
2022/07/15 14:52:42;;;;;;;6.10;2.67;;;;;;;;;;5131206;27;20893;-74
2022/07/15 14:55:10;;;;;;;4.93;2.10;;;;;;;;;;5131712;27;20906;-74
2022/07/15 14:57:37;;;;;;;2.93;2.33;;;;;;;;;;5131299;28;20449;-74
2022/07/15 15:00:04;;;;;;;4.60;2.20;;;;;;;;;;5131315;27;20464;-74
2022/07/15 15:02:32;;;;;;;2.33;2.03;;;;;;;;;;5131451;27;20974;-74